sensor_id;sensor_type;location;lat;lon;timestamp;P1;durP1;ratioP1;P2;durP2;ratioP2
73452;SDS011;61687;56.232;43.854;2023-11-19T00:01:23;17.38;;;9.07;;
73452;SDS011;61687;56.232;43.854;2023-11-19T00:03:49;21.92;;;8.63;;
73452;SDS011;61687;56.232;43.854;2023-11-19T00:06:15;20.92;;;9.73;;
73452;SDS011;61687;56.232;43.854;2023-11-19T00:08:42;26.13;;;9.10;;
73452;SDS011;61687;56.232;43.854;2023-11-19T00:11:11;21.52;;;9.60;;
73452;SDS011;61687;56.232;43.854;2023-11-19T00:13:41;19.98;;;8.35;;
73452;SDS011;61687;56.232;43.854;2023-11-19T00:16:07;20.88;;;8.95;;
73452;SDS011;61687;56.232;43.854;2023-11-19T00:18:35;22.35;;;9.50;;
73452;SDS011;61687;56.232;43.854;2023-11-19T00:21:02;21.80;;;9.60;;
73452;SDS011;61687;56.232;43.854;2023-11-19T00:23:28;19.45;;;8.98;;
73452;SDS011;61687;56.232;43.854;2023-11-19T00:25:54;20.23;;;9.63;;
73452;SDS011;61687;56.232;43.854;2023-11-19T00:28:20;22.55;;;10.32;;
73452;SDS011;61687;56.232;43.854;2023-11-19T00:30:46;27.27;;;9.87;;
73452;SDS011;61687;56.232;43.854;2023-11-19T00:33:11;21.15;;;9.00;;
73452;SDS011;61687;56.232;43.854;2023-11-19T00:35:38;22.08;;;9.50;;
73452;SDS011;61687;56.232;43.854;2023-11-19T00:38:04;25.10;;;9.32;;
73452;SDS011;61687;56.232;43.854;2023-11-19T00:40:30;22.40;;;9.30;;
73452;SDS011;61687;56.232;43.854;2023-11-19T00:42:55;21.65;;;9.90;;
73452;SDS011;61687;56.232;43.854;2023-11-19T00:45:22;19.35;;;10.55;;
73452;SDS011;61687;56.232;43.854;2023-11-19T00:47:48;21.37;;;9.50;;
73452;SDS011;61687;56.232;43.854;2023-11-19T00:50:14;25.52;;;9.98;;
73452;SDS011;61687;56.232;43.854;2023-11-19T00:52:41;22.25;;;9.35;;
73452;SDS011;61687;56.232;43.854;2023-11-19T00:55:07;21.40;;;9.65;;
73452;SDS011;61687;56.232;43.854;2023-11-19T00:57:33;18.27;;;9.43;;
73452;SDS011;61687;56.232;43.854;2023-11-19T00:59:59;23.80;;;8.93;;
73452;SDS011;61687;56.232;43.854;2023-11-19T01:02:25;23.15;;;9.93;;
73452;SDS011;61687;56.232;43.854;2023-11-19T01:04:51;18.85;;;8.95;;
73452;SDS011;61687;56.232;43.854;2023-11-19T01:07:17;22.08;;;9.50;;
73452;SDS011;61687;56.232;43.854;2023-11-19T01:09:43;23.73;;;10.30;;
73452;SDS011;61687;56.232;43.854;2023-11-19T01:12:09;19.55;;;8.95;;
73452;SDS011;61687;56.232;43.854;2023-11-19T01:14:35;21.77;;;8.50;;
73452;SDS011;61687;56.232;43.854;2023-11-19T01:17:01;24.30;;;10.32;;
73452;SDS011;61687;56.232;43.854;2023-11-19T01:19:28;20.20;;;8.53;;
73452;SDS011;61687;56.232;43.854;2023-11-19T01:21:55;25.80;;;9.23;;
73452;SDS011;61687;56.232;43.854;2023-11-19T01:24:22;21.42;;;9.52;;
73452;SDS011;61687;56.232;43.854;2023-11-19T01:26:47;19.58;;;8.95;;
73452;SDS011;61687;56.232;43.854;2023-11-19T01:29:14;18.77;;;8.60;;
73452;SDS011;61687;56.232;43.854;2023-11-19T01:31:41;20.20;;;9.77;;
73452;SDS011;61687;56.232;43.854;2023-11-19T01:34:08;22.80;;;8.57;;
73452;SDS011;61687;56.232;43.854;2023-11-19T01:36:34;24.17;;;9.50;;
73452;SDS011;61687;56.232;43.854;2023-11-19T01:39:00;20.73;;;8.90;;
73452;SDS011;61687;56.232;43.854;2023-11-19T01:41:26;17.45;;;8.73;;
73452;SDS011;61687;56.232;43.854;2023-11-19T01:43:53;19.70;;;8.97;;
73452;SDS011;61687;56.232;43.854;2023-11-19T01:46:20;24.00;;;9.93;;
73452;SDS011;61687;56.232;43.854;2023-11-19T01:48:46;21.55;;;10.07;;
73452;SDS011;61687;56.232;43.854;2023-11-19T01:51:12;22.80;;;8.98;;
73452;SDS011;61687;56.232;43.854;2023-11-19T01:53:42;16.05;;;8.40;;
73452;SDS011;61687;56.232;43.854;2023-11-19T01:56:11;25.07;;;8.97;;
73452;SDS011;61687;56.232;43.854;2023-11-19T01:58:40;19.48;;;8.70;;
73452;SDS011;61687;56.232;43.854;2023-11-19T02:01:07;22.38;;;9.23;;
73452;SDS011;61687;56.232;43.854;2023-11-19T02:03:34;21.02;;;8.20;;
73452;SDS011;61687;56.232;43.854;2023-11-19T02:06:01;20.00;;;8.27;;
73452;SDS011;61687;56.232;43.854;2023-11-19T02:08:29;18.80;;;8.20;;
73452;SDS011;61687;56.232;43.854;2023-11-19T02:10:56;21.73;;;8.45;;
73452;SDS011;61687;56.232;43.854;2023-11-19T02:13:25;19.17;;;8.82;;
73452;SDS011;61687;56.232;43.854;2023-11-19T02:15:52;17.35;;;8.25;;
73452;SDS011;61687;56.232;43.854;2023-11-19T02:18:26;23.80;;;9.75;;
73452;SDS011;61687;56.232;43.854;2023-11-19T02:20:57;19.17;;;8.67;;
73452;SDS011;61687;56.232;43.854;2023-11-19T02:23:28;21.42;;;8.85;;
73452;SDS011;61687;56.232;43.854;2023-11-19T02:26:00;25.13;;;9.85;;
73452;SDS011;61687;56.232;43.854;2023-11-19T02:28:34;21.27;;;9.18;;
73452;SDS011;61687;56.232;43.854;2023-11-19T02:31:02;20.00;;;8.85;;
73452;SDS011;61687;56.232;43.854;2023-11-19T02:33:30;21.87;;;9.50;;
73452;SDS011;61687;56.232;43.854;2023-11-19T02:35:56;24.55;;;10.20;;
73452;SDS011;61687;56.232;43.854;2023-11-19T02:38:22;22.48;;;9.88;;
73452;SDS011;61687;56.232;43.854;2023-11-19T02:40:48;24.65;;;10.25;;
73452;SDS011;61687;56.232;43.854;2023-11-19T02:43:15;21.60;;;9.00;;
73452;SDS011;61687;56.232;43.854;2023-11-19T02:45:41;21.10;;;10.05;;
73452;SDS011;61687;56.232;43.854;2023-11-19T02:48:08;20.33;;;9.57;;
73452;SDS011;61687;56.232;43.854;2023-11-19T02:50:35;20.35;;;8.98;;
73452;SDS011;61687;56.232;43.854;2023-11-19T02:53:02;25.05;;;9.85;;
73452;SDS011;61687;56.232;43.854;2023-11-19T02:55:28;19.37;;;8.70;;
73452;SDS011;61687;56.232;43.854;2023-11-19T02:57:59;21.45;;;9.80;;
73452;SDS011;61687;56.232;43.854;2023-11-19T03:00:25;22.23;;;10.38;;
73452;SDS011;61687;56.232;43.854;2023-11-19T03:03:08;23.02;;;10.00;;
73452;SDS011;61687;56.232;43.854;2023-11-19T03:05:46;17.77;;;8.60;;
73452;SDS011;61687;56.232;43.854;2023-11-19T03:08:12;18.42;;;9.30;;
73452;SDS011;61687;56.232;43.854;2023-11-19T03:10:39;16.80;;;9.27;;
73452;SDS011;61687;56.232;43.854;2023-11-19T03:13:05;22.52;;;9.10;;
73452;SDS011;61687;56.232;43.854;2023-11-19T03:15:31;25.48;;;8.95;;
73452;SDS011;61687;56.232;43.854;2023-11-19T03:17:57;21.63;;;9.47;;
73452;SDS011;61687;56.232;43.854;2023-11-19T03:20:23;18.65;;;8.77;;
73452;SDS011;61687;56.232;43.854;2023-11-19T03:22:50;20.95;;;8.65;;
73452;SDS011;61687;56.232;43.854;2023-11-19T03:25:18;24.67;;;9.35;;
73452;SDS011;61687;56.232;43.854;2023-11-19T03:27:44;18.87;;;9.13;;
73452;SDS011;61687;56.232;43.854;2023-11-19T03:30:10;22.52;;;8.27;;
73452;SDS011;61687;56.232;43.854;2023-11-19T03:32:37;22.65;;;8.90;;
73452;SDS011;61687;56.232;43.854;2023-11-19T03:35:05;23.30;;;9.38;;
73452;SDS011;61687;56.232;43.854;2023-11-19T03:37:35;21.00;;;9.50;;
73452;SDS011;61687;56.232;43.854;2023-11-19T03:40:02;25.98;;;10.73;;
73452;SDS011;61687;56.232;43.854;2023-11-19T03:42:30;23.90;;;9.15;;
73452;SDS011;61687;56.232;43.854;2023-11-19T03:44:56;17.92;;;8.75;;
73452;SDS011;61687;56.232;43.854;2023-11-19T03:47:22;25.85;;;10.15;;
73452;SDS011;61687;56.232;43.854;2023-11-19T03:49:49;21.20;;;8.50;;
73452;SDS011;61687;56.232;43.854;2023-11-19T03:52:16;27.75;;;9.48;;
73452;SDS011;61687;56.232;43.854;2023-11-19T03:54:42;20.77;;;10.00;;
73452;SDS011;61687;56.232;43.854;2023-11-19T03:57:09;29.40;;;10.85;;
73452;SDS011;61687;56.232;43.854;2023-11-19T03:59:38;24.58;;;10.13;;
73452;SDS011;61687;56.232;43.854;2023-11-19T04:02:05;22.27;;;9.37;;
73452;SDS011;61687;56.232;43.854;2023-11-19T04:04:32;26.02;;;11.18;;
73452;SDS011;61687;56.232;43.854;2023-11-19T04:07:00;25.73;;;11.27;;
73452;SDS011;61687;56.232;43.854;2023-11-19T04:09:28;28.85;;;10.52;;
73452;SDS011;61687;56.232;43.854;2023-11-19T04:11:55;32.33;;;11.85;;
73452;SDS011;61687;56.232;43.854;2023-11-19T04:14:26;22.43;;;10.67;;
73452;SDS011;61687;56.232;43.854;2023-11-19T04:16:52;32.08;;;11.48;;
73452;SDS011;61687;56.232;43.854;2023-11-19T04:19:19;20.83;;;9.07;;
73452;SDS011;61687;56.232;43.854;2023-11-19T04:21:45;17.80;;;7.90;;
73452;SDS011;61687;56.232;43.854;2023-11-19T04:24:12;26.05;;;10.15;;
73452;SDS011;61687;56.232;43.854;2023-11-19T04:26:43;18.63;;;8.80;;
73452;SDS011;61687;56.232;43.854;2023-11-19T04:29:11;23.63;;;9.75;;
73452;SDS011;61687;56.232;43.854;2023-11-19T04:31:40;22.08;;;9.95;;
73452;SDS011;61687;56.232;43.854;2023-11-19T04:34:06;20.73;;;9.52;;
73452;SDS011;61687;56.232;43.854;2023-11-19T04:36:33;21.90;;;10.75;;
73452;SDS011;61687;56.232;43.854;2023-11-19T04:38:59;22.60;;;10.93;;
73452;SDS011;61687;56.232;43.854;2023-11-19T04:41:26;29.85;;;11.23;;
73452;SDS011;61687;56.232;43.854;2023-11-19T04:43:55;30.77;;;13.98;;
73452;SDS011;61687;56.232;43.854;2023-11-19T04:46:21;28.00;;;11.68;;
73452;SDS011;61687;56.232;43.854;2023-11-19T04:48:49;28.15;;;11.55;;
73452;SDS011;61687;56.232;43.854;2023-11-19T04:51:16;29.97;;;11.90;;
73452;SDS011;61687;56.232;43.854;2023-11-19T04:53:42;24.45;;;11.82;;
73452;SDS011;61687;56.232;43.854;2023-11-19T04:56:08;26.65;;;11.32;;
73452;SDS011;61687;56.232;43.854;2023-11-19T04:58:35;26.50;;;11.70;;
73452;SDS011;61687;56.232;43.854;2023-11-19T05:01:05;27.15;;;11.07;;
73452;SDS011;61687;56.232;43.854;2023-11-19T05:03:31;25.93;;;11.27;;
73452;SDS011;61687;56.232;43.854;2023-11-19T05:05:58;29.80;;;10.75;;
73452;SDS011;61687;56.232;43.854;2023-11-19T05:08:24;23.65;;;11.43;;
73452;SDS011;61687;56.232;43.854;2023-11-19T05:10:50;27.27;;;10.68;;
73452;SDS011;61687;56.232;43.854;2023-11-19T05:13:17;23.85;;;10.93;;
73452;SDS011;61687;56.232;43.854;2023-11-19T05:15:43;24.03;;;10.00;;
73452;SDS011;61687;56.232;43.854;2023-11-19T05:18:09;21.80;;;10.10;;
73452;SDS011;61687;56.232;43.854;2023-11-19T05:20:35;33.70;;;10.32;;
73452;SDS011;61687;56.232;43.854;2023-11-19T05:23:01;23.70;;;10.70;;
73452;SDS011;61687;56.232;43.854;2023-11-19T05:25:27;22.23;;;9.50;;
73452;SDS011;61687;56.232;43.854;2023-11-19T05:27:53;31.45;;;9.98;;
73452;SDS011;61687;56.232;43.854;2023-11-19T05:30:19;27.48;;;10.88;;
73452;SDS011;61687;56.232;43.854;2023-11-19T05:32:45;23.25;;;9.63;;
73452;SDS011;61687;56.232;43.854;2023-11-19T05:35:11;31.42;;;10.93;;
73452;SDS011;61687;56.232;43.854;2023-11-19T05:37:38;25.03;;;10.57;;
73452;SDS011;61687;56.232;43.854;2023-11-19T05:40:04;25.30;;;10.02;;
73452;SDS011;61687;56.232;43.854;2023-11-19T05:42:37;33.97;;;10.90;;
73452;SDS011;61687;56.232;43.854;2023-11-19T05:45:03;31.48;;;11.75;;
73452;SDS011;61687;56.232;43.854;2023-11-19T05:47:31;32.20;;;13.13;;
73452;SDS011;61687;56.232;43.854;2023-11-19T05:49:56;26.15;;;10.60;;
73452;SDS011;61687;56.232;43.854;2023-11-19T05:52:23;28.20;;;12.10;;
73452;SDS011;61687;56.232;43.854;2023-11-19T05:54:49;23.33;;;11.20;;
73452;SDS011;61687;56.232;43.854;2023-11-19T05:57:17;24.90;;;10.90;;
73452;SDS011;61687;56.232;43.854;2023-11-19T05:59:49;29.40;;;11.07;;
73452;SDS011;61687;56.232;43.854;2023-11-19T06:02:15;21.98;;;8.82;;
73452;SDS011;61687;56.232;43.854;2023-11-19T06:04:41;20.48;;;9.70;;
73452;SDS011;61687;56.232;43.854;2023-11-19T06:07:09;21.83;;;10.20;;
73452;SDS011;61687;56.232;43.854;2023-11-19T06:09:35;25.58;;;10.85;;
73452;SDS011;61687;56.232;43.854;2023-11-19T06:12:01;22.55;;;8.65;;
73452;SDS011;61687;56.232;43.854;2023-11-19T06:14:27;21.08;;;9.52;;
73452;SDS011;61687;56.232;43.854;2023-11-19T06:16:53;25.47;;;9.60;;
73452;SDS011;61687;56.232;43.854;2023-11-19T06:19:19;22.23;;;9.05;;
73452;SDS011;61687;56.232;43.854;2023-11-19T06:21:45;22.02;;;9.57;;
73452;SDS011;61687;56.232;43.854;2023-11-19T06:24:11;18.20;;;8.70;;
73452;SDS011;61687;56.232;43.854;2023-11-19T06:26:37;18.05;;;9.02;;
73452;SDS011;61687;56.232;43.854;2023-11-19T06:29:04;21.85;;;8.40;;
73452;SDS011;61687;56.232;43.854;2023-11-19T06:31:30;16.75;;;7.72;;
73452;SDS011;61687;56.232;43.854;2023-11-19T06:33:56;17.70;;;7.57;;
73452;SDS011;61687;56.232;43.854;2023-11-19T06:36:22;15.88;;;7.72;;
73452;SDS011;61687;56.232;43.854;2023-11-19T06:38:48;15.63;;;7.50;;
73452;SDS011;61687;56.232;43.854;2023-11-19T06:41:14;18.83;;;8.27;;
73452;SDS011;61687;56.232;43.854;2023-11-19T06:43:40;12.77;;;6.53;;
73452;SDS011;61687;56.232;43.854;2023-11-19T06:46:14;20.20;;;7.50;;
73452;SDS011;61687;56.232;43.854;2023-11-19T06:48:40;18.67;;;8.85;;
73452;SDS011;61687;56.232;43.854;2023-11-19T06:51:08;17.98;;;7.95;;
73452;SDS011;61687;56.232;43.854;2023-11-19T06:53:34;15.97;;;7.50;;
73452;SDS011;61687;56.232;43.854;2023-11-19T06:56:01;18.17;;;8.75;;
73452;SDS011;61687;56.232;43.854;2023-11-19T06:58:32;16.52;;;8.20;;
73452;SDS011;61687;56.232;43.854;2023-11-19T07:01:01;12.73;;;7.40;;
73452;SDS011;61687;56.232;43.854;2023-11-19T07:03:27;18.05;;;6.93;;
73452;SDS011;61687;56.232;43.854;2023-11-19T07:05:53;15.87;;;8.00;;
73452;SDS011;61687;56.232;43.854;2023-11-19T07:08:21;20.20;;;5.72;;
73452;SDS011;61687;56.232;43.854;2023-11-19T07:10:47;14.27;;;7.18;;
73452;SDS011;61687;56.232;43.854;2023-11-19T07:13:13;17.73;;;7.60;;
73452;SDS011;61687;56.232;43.854;2023-11-19T07:15:38;15.77;;;7.50;;
73452;SDS011;61687;56.232;43.854;2023-11-19T07:18:04;17.40;;;7.57;;
73452;SDS011;61687;56.232;43.854;2023-11-19T07:20:30;16.00;;;7.43;;
73452;SDS011;61687;56.232;43.854;2023-11-19T07:22:58;15.93;;;7.10;;
73452;SDS011;61687;56.232;43.854;2023-11-19T07:25:24;20.33;;;7.65;;
73452;SDS011;61687;56.232;43.854;2023-11-19T07:27:51;18.43;;;8.53;;
73452;SDS011;61687;56.232;43.854;2023-11-19T07:30:18;16.42;;;6.53;;
73452;SDS011;61687;56.232;43.854;2023-11-19T07:32:44;17.35;;;8.55;;
73452;SDS011;61687;56.232;43.854;2023-11-19T07:35:10;18.33;;;7.47;;
73452;SDS011;61687;56.232;43.854;2023-11-19T07:37:35;18.17;;;7.70;;
73452;SDS011;61687;56.232;43.854;2023-11-19T07:40:01;16.60;;;7.85;;
73452;SDS011;61687;56.232;43.854;2023-11-19T07:42:29;15.68;;;8.85;;
73452;SDS011;61687;56.232;43.854;2023-11-19T07:44:56;18.20;;;8.23;;
73452;SDS011;61687;56.232;43.854;2023-11-19T07:47:22;21.27;;;8.05;;
73452;SDS011;61687;56.232;43.854;2023-11-19T07:49:49;13.82;;;7.10;;
73452;SDS011;61687;56.232;43.854;2023-11-19T07:52:16;14.65;;;6.95;;
73452;SDS011;61687;56.232;43.854;2023-11-19T07:54:42;17.47;;;8.20;;
73452;SDS011;61687;56.232;43.854;2023-11-19T07:57:08;13.43;;;6.40;;
73452;SDS011;61687;56.232;43.854;2023-11-19T07:59:33;17.88;;;6.07;;
73452;SDS011;61687;56.232;43.854;2023-11-19T08:01:59;17.53;;;7.30;;
73452;SDS011;61687;56.232;43.854;2023-11-19T08:04:25;13.88;;;6.35;;
73452;SDS011;61687;56.232;43.854;2023-11-19T08:06:52;12.60;;;5.82;;
73452;SDS011;61687;56.232;43.854;2023-11-19T08:09:18;17.27;;;7.57;;
73452;SDS011;61687;56.232;43.854;2023-11-19T08:11:44;17.13;;;6.57;;
73452;SDS011;61687;56.232;43.854;2023-11-19T08:14:11;16.20;;;6.65;;
73452;SDS011;61687;56.232;43.854;2023-11-19T08:16:38;17.73;;;8.23;;
73452;SDS011;61687;56.232;43.854;2023-11-19T08:19:05;14.90;;;7.57;;
73452;SDS011;61687;56.232;43.854;2023-11-19T08:21:30;14.73;;;7.57;;
73452;SDS011;61687;56.232;43.854;2023-11-19T08:23:56;14.00;;;7.70;;
73452;SDS011;61687;56.232;43.854;2023-11-19T08:26:22;16.23;;;6.63;;
73452;SDS011;61687;56.232;43.854;2023-11-19T08:28:49;13.90;;;6.72;;
73452;SDS011;61687;56.232;43.854;2023-11-19T08:31:15;20.60;;;7.47;;
73452;SDS011;61687;56.232;43.854;2023-11-19T08:33:41;17.13;;;7.70;;
73452;SDS011;61687;56.232;43.854;2023-11-19T08:36:07;14.85;;;7.20;;
73452;SDS011;61687;56.232;43.854;2023-11-19T08:38:33;11.95;;;7.50;;
73452;SDS011;61687;56.232;43.854;2023-11-19T08:40:59;15.95;;;7.85;;
73452;SDS011;61687;56.232;43.854;2023-11-19T08:43:25;10.80;;;6.30;;
73452;SDS011;61687;56.232;43.854;2023-11-19T08:45:52;16.13;;;7.88;;
73452;SDS011;61687;56.232;43.854;2023-11-19T08:48:17;20.67;;;7.97;;
73452;SDS011;61687;56.232;43.854;2023-11-19T08:50:43;17.00;;;8.27;;
73452;SDS011;61687;56.232;43.854;2023-11-19T08:53:09;17.55;;;9.18;;
73452;SDS011;61687;56.232;43.854;2023-11-19T08:55:36;18.80;;;8.73;;
73452;SDS011;61687;56.232;43.854;2023-11-19T08:58:02;18.70;;;10.13;;
73452;SDS011;61687;56.232;43.854;2023-11-19T09:00:28;17.13;;;8.73;;
73452;SDS011;61687;56.232;43.854;2023-11-19T09:02:55;20.25;;;9.30;;
73452;SDS011;61687;56.232;43.854;2023-11-19T09:05:21;20.90;;;9.40;;
73452;SDS011;61687;56.232;43.854;2023-11-19T09:07:47;20.83;;;9.43;;
73452;SDS011;61687;56.232;43.854;2023-11-19T09:10:13;22.67;;;10.07;;
73452;SDS011;61687;56.232;43.854;2023-11-19T09:12:39;24.85;;;9.90;;
73452;SDS011;61687;56.232;43.854;2023-11-19T09:15:05;14.67;;;7.93;;
73452;SDS011;61687;56.232;43.854;2023-11-19T09:17:32;17.30;;;7.72;;
73452;SDS011;61687;56.232;43.854;2023-11-19T09:19:58;19.58;;;9.70;;
73452;SDS011;61687;56.232;43.854;2023-11-19T09:22:24;21.40;;;9.63;;
73452;SDS011;61687;56.232;43.854;2023-11-19T09:24:49;21.20;;;8.48;;
73452;SDS011;61687;56.232;43.854;2023-11-19T09:27:15;23.23;;;10.13;;
73452;SDS011;61687;56.232;43.854;2023-11-19T09:29:41;20.00;;;8.65;;
73452;SDS011;61687;56.232;43.854;2023-11-19T09:32:08;17.60;;;8.38;;
73452;SDS011;61687;56.232;43.854;2023-11-19T09:34:34;21.02;;;10.05;;
73452;SDS011;61687;56.232;43.854;2023-11-19T09:37:00;17.30;;;7.93;;
73452;SDS011;61687;56.232;43.854;2023-11-19T09:39:27;19.05;;;8.75;;
73452;SDS011;61687;56.232;43.854;2023-11-19T09:41:53;20.73;;;8.77;;
73452;SDS011;61687;56.232;43.854;2023-11-19T09:44:19;17.67;;;9.07;;
73452;SDS011;61687;56.232;43.854;2023-11-19T09:46:45;24.90;;;9.50;;
73452;SDS011;61687;56.232;43.854;2023-11-19T09:49:12;19.08;;;8.02;;
73452;SDS011;61687;56.232;43.854;2023-11-19T09:51:39;17.75;;;7.65;;
73452;SDS011;61687;56.232;43.854;2023-11-19T09:54:06;16.67;;;7.63;;
73452;SDS011;61687;56.232;43.854;2023-11-19T09:56:32;17.85;;;9.10;;
73452;SDS011;61687;56.232;43.854;2023-11-19T09:58:59;14.63;;;8.17;;
73452;SDS011;61687;56.232;43.854;2023-11-19T10:01:25;19.85;;;8.98;;
73452;SDS011;61687;56.232;43.854;2023-11-19T10:03:52;16.95;;;8.43;;
73452;SDS011;61687;56.232;43.854;2023-11-19T10:06:20;18.77;;;8.32;;
73452;SDS011;61687;56.232;43.854;2023-11-19T10:08:47;20.23;;;8.88;;
73452;SDS011;61687;56.232;43.854;2023-11-19T10:11:13;16.03;;;8.07;;
73452;SDS011;61687;56.232;43.854;2023-11-19T10:13:38;15.73;;;7.28;;
73452;SDS011;61687;56.232;43.854;2023-11-19T10:16:08;17.33;;;8.63;;
73452;SDS011;61687;56.232;43.854;2023-11-19T10:18:37;17.48;;;8.48;;
73452;SDS011;61687;56.232;43.854;2023-11-19T10:21:04;14.53;;;6.70;;
73452;SDS011;61687;56.232;43.854;2023-11-19T10:23:52;16.65;;;6.72;;
73452;SDS011;61687;56.232;43.854;2023-11-19T10:26:20;13.65;;;6.78;;
73452;SDS011;61687;56.232;43.854;2023-11-19T10:28:46;16.20;;;7.70;;
73452;SDS011;61687;56.232;43.854;2023-11-19T10:31:13;13.82;;;7.13;;
73452;SDS011;61687;56.232;43.854;2023-11-19T10:33:44;14.47;;;7.10;;
73452;SDS011;61687;56.232;43.854;2023-11-19T10:36:11;18.88;;;8.20;;
73452;SDS011;61687;56.232;43.854;2023-11-19T10:38:38;15.95;;;7.32;;
73452;SDS011;61687;56.232;43.854;2023-11-19T10:41:05;15.38;;;7.40;;
73452;SDS011;61687;56.232;43.854;2023-11-19T10:43:31;16.55;;;8.68;;
73452;SDS011;61687;56.232;43.854;2023-11-19T10:46:09;19.07;;;8.27;;
73452;SDS011;61687;56.232;43.854;2023-11-19T10:48:37;17.55;;;8.38;;
73452;SDS011;61687;56.232;43.854;2023-11-19T10:51:05;16.13;;;8.05;;
73452;SDS011;61687;56.232;43.854;2023-11-19T10:53:36;18.73;;;8.43;;
73452;SDS011;61687;56.232;43.854;2023-11-19T10:56:10;22.73;;;8.32;;
73452;SDS011;61687;56.232;43.854;2023-11-19T10:58:37;17.57;;;7.53;;
73452;SDS011;61687;56.232;43.854;2023-11-19T11:01:09;11.90;;;6.95;;
73452;SDS011;61687;56.232;43.854;2023-11-19T11:03:40;17.35;;;6.60;;
73452;SDS011;61687;56.232;43.854;2023-11-19T11:06:06;16.20;;;6.70;;
73452;SDS011;61687;56.232;43.854;2023-11-19T11:08:36;16.00;;;6.85;;
73452;SDS011;61687;56.232;43.854;2023-11-19T11:11:03;13.97;;;6.53;;
73452;SDS011;61687;56.232;43.854;2023-11-19T11:13:30;17.08;;;6.80;;
73452;SDS011;61687;56.232;43.854;2023-11-19T11:15:57;25.60;;;8.20;;
73452;SDS011;61687;56.232;43.854;2023-11-19T11:18:24;16.88;;;7.43;;
73452;SDS011;61687;56.232;43.854;2023-11-19T11:20:54;14.05;;;7.10;;
73452;SDS011;61687;56.232;43.854;2023-11-19T11:27:40;12.68;;;6.60;;
73452;SDS011;61687;56.232;43.854;2023-11-19T11:32:54;17.00;;;7.43;;
73452;SDS011;61687;56.232;43.854;2023-11-19T11:36:07;15.43;;;6.28;;
73452;SDS011;61687;56.232;43.854;2023-11-19T11:38:48;21.20;;;7.57;;
73452;SDS011;61687;56.232;43.854;2023-11-19T11:41:22;18.17;;;7.38;;
73452;SDS011;61687;56.232;43.854;2023-11-19T11:43:52;14.40;;;7.30;;
73452;SDS011;61687;56.232;43.854;2023-11-19T11:49:03;11.30;;;7.20;;
73452;SDS011;61687;56.232;43.854;2023-11-19T11:54:09;11.50;;;6.55;;
73452;SDS011;61687;56.232;43.854;2023-11-19T11:57:11;15.10;;;7.70;;
73452;SDS011;61687;56.232;43.854;2023-11-19T12:02:08;17.75;;;7.90;;
73452;SDS011;61687;56.232;43.854;2023-11-19T12:04:35;16.90;;;7.93;;
73452;SDS011;61687;56.232;43.854;2023-11-19T12:07:06;17.85;;;7.47;;
73452;SDS011;61687;56.232;43.854;2023-11-19T12:09:46;18.98;;;8.45;;
73452;SDS011;61687;56.232;43.854;2023-11-19T12:19:59;16.85;;;8.15;;
73452;SDS011;61687;56.232;43.854;2023-11-19T12:22:31;14.80;;;7.88;;
73452;SDS011;61687;56.232;43.854;2023-11-19T12:24:57;14.82;;;8.05;;
73452;SDS011;61687;56.232;43.854;2023-11-19T12:27:24;13.40;;;7.83;;
73452;SDS011;61687;56.232;43.854;2023-11-19T12:29:51;13.20;;;7.28;;
73452;SDS011;61687;56.232;43.854;2023-11-19T12:32:18;16.80;;;7.85;;
73452;SDS011;61687;56.232;43.854;2023-11-19T12:34:44;14.32;;;7.90;;
73452;SDS011;61687;56.232;43.854;2023-11-19T12:37:11;15.55;;;8.20;;
73452;SDS011;61687;56.232;43.854;2023-11-19T12:39:37;16.67;;;7.87;;
73452;SDS011;61687;56.232;43.854;2023-11-19T12:42:03;19.27;;;8.88;;
73452;SDS011;61687;56.232;43.854;2023-11-19T12:44:29;16.63;;;8.38;;
73452;SDS011;61687;56.232;43.854;2023-11-19T12:47:05;19.45;;;9.10;;
73452;SDS011;61687;56.232;43.854;2023-11-19T12:49:32;22.92;;;9.32;;
73452;SDS011;61687;56.232;43.854;2023-11-19T12:51:59;15.07;;;7.83;;
73452;SDS011;61687;56.232;43.854;2023-11-19T12:54:32;17.58;;;8.10;;
73452;SDS011;61687;56.232;43.854;2023-11-19T12:56:59;13.18;;;6.68;;
73452;SDS011;61687;56.232;43.854;2023-11-19T12:59:25;14.48;;;7.57;;
73452;SDS011;61687;56.232;43.854;2023-11-19T13:01:56;19.23;;;6.87;;
73452;SDS011;61687;56.232;43.854;2023-11-19T13:04:29;22.58;;;8.05;;
73452;SDS011;61687;56.232;43.854;2023-11-19T13:06:58;15.75;;;9.00;;
73452;SDS011;61687;56.232;43.854;2023-11-19T13:09:26;21.10;;;9.60;;
73452;SDS011;61687;56.232;43.854;2023-11-19T13:11:53;21.05;;;8.35;;
73452;SDS011;61687;56.232;43.854;2023-11-19T13:14:20;21.13;;;8.60;;
73452;SDS011;61687;56.232;43.854;2023-11-19T13:16:46;19.02;;;8.27;;
73452;SDS011;61687;56.232;43.854;2023-11-19T13:19:13;17.42;;;8.15;;
73452;SDS011;61687;56.232;43.854;2023-11-19T13:21:39;12.85;;;7.07;;
73452;SDS011;61687;56.232;43.854;2023-11-19T13:24:06;12.57;;;7.20;;
73452;SDS011;61687;56.232;43.854;2023-11-19T13:26:32;13.38;;;6.82;;
73452;SDS011;61687;56.232;43.854;2023-11-19T13:28:58;16.30;;;7.82;;
73452;SDS011;61687;56.232;43.854;2023-11-19T13:31:24;12.85;;;7.43;;
73452;SDS011;61687;56.232;43.854;2023-11-19T13:33:51;15.75;;;7.32;;
73452;SDS011;61687;56.232;43.854;2023-11-19T13:36:16;12.57;;;6.43;;
73452;SDS011;61687;56.232;43.854;2023-11-19T13:38:43;13.95;;;6.80;;
73452;SDS011;61687;56.232;43.854;2023-11-19T13:41:10;13.70;;;7.68;;
73452;SDS011;61687;56.232;43.854;2023-11-19T13:43:37;14.95;;;7.75;;
73452;SDS011;61687;56.232;43.854;2023-11-19T13:46:02;18.50;;;7.33;;
73452;SDS011;61687;56.232;43.854;2023-11-19T13:48:29;20.10;;;9.07;;
73452;SDS011;61687;56.232;43.854;2023-11-19T13:50:55;18.67;;;7.72;;
73452;SDS011;61687;56.232;43.854;2023-11-19T13:53:22;14.23;;;6.78;;
73452;SDS011;61687;56.232;43.854;2023-11-19T13:55:51;13.37;;;6.87;;
73452;SDS011;61687;56.232;43.854;2023-11-19T13:58:17;14.85;;;7.07;;
73452;SDS011;61687;56.232;43.854;2023-11-19T14:00:42;13.07;;;6.25;;
73452;SDS011;61687;56.232;43.854;2023-11-19T14:03:09;14.63;;;6.90;;
73452;SDS011;61687;56.232;43.854;2023-11-19T14:05:38;15.70;;;7.23;;
73452;SDS011;61687;56.232;43.854;2023-11-19T14:08:07;15.00;;;6.03;;
73452;SDS011;61687;56.232;43.854;2023-11-19T14:10:39;12.38;;;6.75;;
73452;SDS011;61687;56.232;43.854;2023-11-19T14:13:06;13.80;;;7.15;;
73452;SDS011;61687;56.232;43.854;2023-11-19T14:15:33;15.43;;;6.57;;
73452;SDS011;61687;56.232;43.854;2023-11-19T14:17:59;11.33;;;6.10;;
73452;SDS011;61687;56.232;43.854;2023-11-19T14:20:25;12.38;;;6.32;;
73452;SDS011;61687;56.232;43.854;2023-11-19T14:22:51;20.70;;;7.13;;
73452;SDS011;61687;56.232;43.854;2023-11-19T14:25:18;22.70;;;7.50;;
73452;SDS011;61687;56.232;43.854;2023-11-19T14:27:44;11.52;;;6.57;;
73452;SDS011;61687;56.232;43.854;2023-11-19T14:30:13;12.33;;;6.03;;
73452;SDS011;61687;56.232;43.854;2023-11-19T14:32:40;17.65;;;6.15;;
73452;SDS011;61687;56.232;43.854;2023-11-19T14:35:11;15.50;;;6.40;;
73452;SDS011;61687;56.232;43.854;2023-11-19T14:37:38;12.98;;;6.80;;
73452;SDS011;61687;56.232;43.854;2023-11-19T14:40:04;20.98;;;7.93;;
73452;SDS011;61687;56.232;43.854;2023-11-19T14:42:32;17.33;;;7.57;;